Time;durP1;ratioP1;P1;durP2;ratioP2;P2;SDS_P1;SDS_P2;PMS_P1;PMS_P2;Temp;Humidity;BMP_temperature;BMP_pressure;BME280_temperature;BME280_humidity;BME280_pressure;Samples;Min_cycle;Max_cycle;Signal;HPM_P1;HPM_P2
2023/11/19 00:00:11;;;;;;;0.10;0.10;;;9.40;99.90;;;;;;5064101;28;20220;-78
2023/11/19 00:02:40;;;;;;;0.10;0.10;;;9.20;99.90;;;;;;5059859;28;20647;-77
2023/11/19 00:05:08;;;;;;;0.10;0.10;;;9.30;99.90;;;;;;5076824;28;20533;-78
2023/11/19 00:07:44;;;;;;;0.10;0.10;;;9.10;99.90;;;;;;5060711;28;20200;-78
2023/11/19 00:10:10;;;;;;;0.10;0.10;;;8.90;99.90;;;;;;5062601;28;20204;-78
2023/11/19 00:12:44;;;;;;;0.10;0.10;;;8.80;99.90;;;;;;5067633;28;20191;-78
2023/11/19 00:15:13;;;;;;;0.10;0.10;;;8.60;99.90;;;;;;5073331;28;20267;-77
2023/11/19 00:17:47;;;;;;;0.10;0.10;;;8.70;99.90;;;;;;5059307;28;20208;-78
2023/11/19 00:20:14;;;;;;;0.10;0.10;;;8.90;99.90;;;;;;5057724;28;20208;-77
2023/11/19 00:22:41;;;;;;;0.10;0.10;;;9.00;99.90;;;;;;5057231;28;20739;-77
2023/11/19 00:25:09;;;;;;;0.10;0.10;;;9.10;99.90;;;;;;5060459;28;20208;-78
2023/11/19 00:27:35;;;;;;;0.10;0.10;;;9.20;99.90;;;;;;5058460;28;20296;-78
2023/11/19 00:30:01;;;;;;;0.10;0.10;;;9.30;99.90;;;;;;5059838;28;20203;-78
2023/11/19 00:32:26;;;;;;;0.10;0.10;;;9.30;99.90;;;;;;5060049;28;20185;-78
2023/11/19 00:34:52;;;;;;;0.10;0.10;;;9.40;99.90;;;;;;5059059;28;20200;-78
2023/11/19 00:37:17;;;;;;;0.10;0.10;;;9.40;99.90;;;;;;5058369;28;20266;-78
2023/11/19 00:39:43;;;;;;;0.00;0.00;;;9.40;99.90;;;;;;5059456;28;20268;-78
2023/11/19 00:42:10;;;;;;;0.00;0.00;;;9.50;99.90;;;;;;5060338;28;20211;-77
2023/11/19 00:44:35;;;;;;;0.07;0.07;;;9.40;99.90;;;;;;5060735;28;20189;-77
2023/11/19 00:47:01;;;;;;;0.10;0.10;;;9.30;99.90;;;;;;5061211;28;20545;-77
2023/11/19 00:49:27;;;;;;;0.10;0.10;;;9.20;99.90;;;;;;5061095;28;20170;-77
2023/11/19 00:51:52;;;;;;;0.10;0.10;;;9.30;99.90;;;;;;5061400;28;20177;-77
2023/11/19 00:54:18;;;;;;;0.10;0.10;;;9.30;99.90;;;;;;5060007;28;20635;-78
2023/11/19 00:56:44;;;;;;;0.10;0.10;;;9.00;99.90;;;;;;5059089;28;20185;-78
2023/11/19 00:59:10;;;;;;;0.10;0.10;;;9.00;99.90;;;;;;5060438;28;20205;-78
2023/11/19 01:01:36;;;;;;;0.10;0.10;;;9.10;99.90;;;;;;5060509;28;20271;-78
2023/11/19 01:04:01;;;;;;;0.10;0.10;;;9.10;99.90;;;;;;5058307;28;20258;-78
2023/11/19 01:06:30;;;;;;;0.10;0.10;;;9.20;99.90;;;;;;5058247;28;20232;-77
2023/11/19 01:08:56;;;;;;;0.10;0.10;;;9.30;99.90;;;;;;5059551;28;20637;-78
2023/11/19 01:11:23;;;;;;;0.10;0.10;;;9.40;99.90;;;;;;5059234;28;20257;-78
2023/11/19 01:13:49;;;;;;;0.10;0.10;;;9.50;99.90;;;;;;5061978;28;20195;-77
2023/11/19 01:16:15;;;;;;;0.10;0.10;;;9.60;99.90;;;;;;5057580;28;20181;-77
2023/11/19 01:18:40;;;;;;;0.10;0.10;;;9.60;99.90;;;;;;5060344;28;20208;-77
2023/11/19 01:21:06;;;;;;;0.10;0.10;;;9.60;99.90;;;;;;5059812;28;20188;-78
2023/11/19 01:23:32;;;;;;;0.00;0.00;;;9.60;99.90;;;;;;5061460;28;20565;-78
2023/11/19 01:25:58;;;;;;;0.10;0.10;;;9.70;99.90;;;;;;5060922;28;20177;-78
2023/11/19 01:28:23;;;;;;;0.10;0.10;;;9.70;99.90;;;;;;5058973;28;20296;-78
2023/11/19 01:30:51;;;;;;;0.10;0.10;;;9.70;99.90;;;;;;5056061;28;20192;-78
2023/11/19 01:33:16;;;;;;;0.10;0.10;;;9.50;99.90;;;;;;5066872;28;20264;-77
2023/11/19 01:35:42;;;;;;;0.10;0.10;;;9.20;99.90;;;;;;5057350;28;20833;-78
2023/11/19 01:38:10;;;;;;;0.10;0.10;;;9.30;99.90;;;;;;5056816;28;20208;-77
2023/11/19 01:40:36;;;;;;;0.10;0.10;;;9.50;99.90;;;;;;5057938;28;20239;-79
2023/11/19 01:43:03;;;;;;;0.00;0.00;;;9.60;99.90;;;;;;5056818;28;20184;-78
2023/11/19 01:45:30;;;;;;;0.10;0.10;;;9.50;99.90;;;;;;5058702;28;20192;-78
2023/11/19 01:48:01;;;;;;;0.10;0.10;;;9.60;99.90;;;;;;5062727;28;20193;-79
2023/11/19 01:50:28;;;;;;;0.10;0.10;;;9.50;99.90;;;;;;5061907;28;20660;-78
2023/11/19 01:52:54;;;;;;;0.10;0.10;;;9.50;99.90;;;;;;5062464;28;20311;-78
2023/11/19 01:55:23;;;;;;;0.10;0.10;;;9.60;99.90;;;;;;5064045;28;20231;-78
2023/11/19 01:57:51;;;;;;;0.10;0.10;;;9.50;99.90;;;;;;5062455;28;20684;-79
2023/11/19 02:00:19;;;;;;;0.10;0.10;;;9.20;99.90;;;;;;5063330;28;20198;-77
2023/11/19 02:02:46;;;;;;;0.00;0.00;;;9.10;99.90;;;;;;5061450;28;20192;-77
2023/11/19 02:05:13;;;;;;;0.10;0.10;;;9.00;99.90;;;;;;5063333;28;20185;-78
2023/11/19 02:07:39;;;;;;;0.10;0.10;;;9.00;99.90;;;;;;5063501;28;20198;-77
2023/11/19 02:10:05;;;;;;;0.10;0.10;;;9.00;99.90;;;;;;5062139;28;20193;-78
2023/11/19 02:12:34;;;;;;;0.10;0.10;;;9.00;99.90;;;;;;5064648;28;20227;-77
2023/11/19 02:14:59;;;;;;;0.10;0.10;;;9.10;99.90;;;;;;5063054;28;20197;-78
2023/11/19 02:17:31;;;;;;;0.10;0.10;;;9.20;99.90;;;;;;5062237;28;20207;-78
2023/11/19 02:19:56;;;;;;;0.10;0.10;;;9.20;99.90;;;;;;5062349;28;20192;-78
2023/11/19 02:22:22;;;;;;;0.10;0.10;;;9.20;99.90;;;;;;5061671;28;20268;-77
2023/11/19 02:24:51;;;;;;;0.10;0.10;;;9.30;99.90;;;;;;5063186;28;20660;-77
2023/11/19 02:27:44;;;;;;;0.07;0.07;;;9.50;99.90;;;;;;5062049;28;20218;-78
2023/11/19 02:30:11;;;;;;;0.10;0.10;;;9.60;99.90;;;;;;5062860;28;20185;-77
2023/11/19 02:32:40;;;;;;;0.10;0.10;;;9.70;99.90;;;;;;5064360;28;20191;-77
2023/11/19 02:35:07;;;;;;;0.10;0.10;;;9.70;99.90;;;;;;5060730;28;20178;-77
2023/11/19 02:37:34;;;;;;;0.10;0.10;;;9.70;99.90;;;;;;5060526;28;20254;-77
2023/11/19 02:40:09;;;;;;;0.10;0.10;;;9.80;99.90;;;;;;5062904;28;20224;-78
2023/11/19 02:42:35;;;;;;;0.10;0.10;;;9.80;99.90;;;;;;5063167;28;20793;-78
2023/11/19 02:45:02;;;;;;;0.10;0.10;;;9.90;99.90;;;;;;5060255;28;20276;-78
2023/11/19 02:47:30;;;;;;;0.10;0.10;;;9.90;99.90;;;;;;5061263;28;20221;-78
2023/11/19 02:49:55;;;;;;;0.07;0.07;;;9.90;99.90;;;;;;5060146;28;20294;-77
2023/11/19 02:52:21;;;;;;;0.10;0.10;;;10.00;99.90;;;;;;5061618;28;20223;-77
2023/11/19 02:54:46;;;;;;;0.10;0.10;;;10.00;99.90;;;;;;5060528;28;20231;-77
2023/11/19 02:57:13;;;;;;;0.10;0.10;;;10.00;99.90;;;;;;5060496;28;20193;-78
2023/11/19 02:59:41;;;;;;;0.10;0.10;;;9.90;99.90;;;;;;5061680;28;20202;-78
2023/11/19 03:02:11;;;;;;;0.10;0.10;;;9.90;99.90;;;;;;5059902;28;20678;-78
2023/11/19 03:04:38;;;;;;;0.10;0.10;;;10.00;99.90;;;;;;5060124;28;20190;-78
2023/11/19 03:07:03;;;;;;;0.10;0.10;;;10.00;99.90;;;;;;5061117;28;20181;-78
2023/11/19 03:09:29;;;;;;;0.10;0.10;;;9.70;99.90;;;;;;5060962;28;20405;-78
2023/11/19 03:11:55;;;;;;;0.10;0.10;;;9.50;99.90;;;;;;5059128;28;20276;-78
2023/11/19 03:14:20;;;;;;;0.10;0.10;;;9.50;99.90;;;;;;5062376;28;20197;-78
2023/11/19 03:16:47;;;;;;;0.10;0.10;;;9.30;99.90;;;;;;5061220;28;20759;-78
2023/11/19 03:19:12;;;;;;;0.10;0.10;;;9.40;99.90;;;;;;5059615;28;20216;-78
2023/11/19 03:21:38;;;;;;;0.10;0.10;;;9.30;99.90;;;;;;5059706;28;20224;-78
2023/11/19 03:24:03;;;;;;;0.10;0.10;;;9.30;99.90;;;;;;5061702;28;20183;-79
2023/11/19 03:26:29;;;;;;;0.03;0.03;;;9.20;99.90;;;;;;5061579;28;20563;-79
2023/11/19 03:28:56;;;;;;;0.10;0.10;;;9.10;99.90;;;;;;5059410;28;20208;-78
2023/11/19 03:31:22;;;;;;;0.03;0.03;;;9.10;99.90;;;;;;5058972;28;20733;-78
2023/11/19 03:33:48;;;;;;;0.10;0.10;;;9.00;99.90;;;;;;5059638;28;20254;-78
2023/11/19 03:36:13;;;;;;;0.10;0.10;;;9.00;99.90;;;;;;5060528;28;20192;-78
2023/11/19 03:38:42;;;;;;;0.10;0.10;;;9.00;99.90;;;;;;5058574;28;20266;-78
2023/11/19 03:41:14;;;;;;;0.10;0.10;;;9.00;99.90;;;;;;5061919;28;20566;-78
2023/11/19 03:43:41;;;;;;;0.77;0.77;;;9.00;99.90;;;;;;5058827;28;20757;-78
2023/11/19 03:46:20;;;;;;;0.10;0.10;;;9.00;99.90;;;;;;5059499;28;20181;-78
2023/11/19 03:48:49;;;;;;;0.10;0.10;;;9.00;99.90;;;;;;5059200;28;20700;-77
2023/11/19 03:51:15;;;;;;;0.00;0.00;;;9.10;99.90;;;;;;5059858;28;20784;-77
2023/11/19 03:53:45;;;;;;;0.10;0.10;;;9.30;99.90;;;;;;5060390;28;20194;-78
2023/11/19 03:56:11;;;;;;;0.10;0.10;;;9.40;99.90;;;;;;5059184;28;20196;-78
2023/11/19 03:58:38;;;;;;;0.10;0.10;;;9.50;99.90;;;;;;5061521;28;20700;-78
2023/11/19 04:01:13;;;;;;;0.07;0.07;;;9.50;99.90;;;;;;5059863;28;20196;-78
2023/11/19 04:03:39;;;;;;;0.07;0.07;;;9.60;99.90;;;;;;5058444;28;20231;-78
2023/11/19 04:06:04;;;;;;;0.10;0.10;;;9.70;99.90;;;;;;5058338;28;20208;-77
2023/11/19 04:08:30;;;;;;;0.10;0.10;;;9.80;99.90;;;;;;5059643;28;20251;-77
2023/11/19 04:10:55;;;;;;;0.07;0.07;;;9.90;99.90;;;;;;5059457;28;20193;-77
2023/11/19 04:13:22;;;;;;;0.10;0.10;;;10.00;99.90;;;;;;5060263;28;20197;-77
2023/11/19 04:15:49;;;;;;;0.10;0.10;;;9.90;99.90;;;;;;5059597;28;20200;-78
2023/11/19 04:18:14;;;;;;;0.10;0.10;;;9.90;99.90;;;;;;5060734;28;20201;-79
2023/11/19 04:20:41;;;;;;;0.10;0.10;;;9.80;99.90;;;;;;5059205;28;20196;-79
2023/11/19 04:23:07;;;;;;;0.10;0.10;;;9.50;99.90;;;;;;5058648;28;20189;-78
2023/11/19 04:25:33;;;;;;;0.10;0.10;;;9.50;99.90;;;;;;5058987;28;20276;-79
2023/11/19 04:27:58;;;;;;;0.10;0.10;;;9.30;99.90;;;;;;5057077;28;20212;-78
2023/11/19 04:30:24;;;;;;;0.00;0.00;;;9.30;99.90;;;;;;5058378;28;20190;-78
2023/11/19 04:32:49;;;;;;;0.10;0.10;;;9.50;99.90;;;;;;5058806;28;20277;-78
2023/11/19 04:35:15;;;;;;;0.10;0.10;;;9.60;99.90;;;;;;5060072;28;20190;-79
2023/11/19 04:37:42;;;;;;;0.10;0.10;;;9.70;99.90;;;;;;5060563;28;20280;-78
2023/11/19 04:40:07;;;;;;;0.10;0.10;;;9.80;99.90;;;;;;5058519;28;20213;-78
2023/11/19 04:42:33;;;;;;;0.10;0.10;;;9.80;99.90;;;;;;5057704;28;20181;-77
2023/11/19 04:44:58;;;;;;;0.10;0.10;;;9.90;99.90;;;;;;5059059;28;20189;-78
2023/11/19 04:47:24;;;;;;;0.10;0.10;;;10.00;99.90;;;;;;5060671;28;20208;-78
2023/11/19 04:49:49;;;;;;;0.10;0.10;;;10.00;99.90;;;;;;5055915;28;20263;-78
2023/11/19 04:52:15;;;;;;;0.10;0.10;;;9.80;99.90;;;;;;5059046;28;20232;-78
2023/11/19 04:54:42;;;;;;;0.10;0.10;;;9.70;99.90;;;;;;5060092;28;20207;-78
2023/11/19 04:57:10;;;;;;;0.10;0.10;;;9.80;99.90;;;;;;5057400;28;20193;-79
2023/11/19 04:59:36;;;;;;;0.10;0.10;;;9.70;99.90;;;;;;5056751;28;20580;-78
2023/11/19 05:02:02;;;;;;;0.10;0.10;;;9.60;99.90;;;;;;5057856;28;20185;-78
2023/11/19 05:04:27;;;;;;;0.10;0.10;;;9.60;99.90;;;;;;5059086;28;20542;-79
2023/11/19 05:06:53;;;;;;;0.00;0.00;;;9.60;99.90;;;;;;5058521;28;20752;-79
2023/11/19 05:09:18;;;;;;;0.00;0.00;;;9.50;99.90;;;;;;5059261;28;20253;-78
2023/11/19 05:11:44;;;;;;;0.10;0.10;;;9.40;99.90;;;;;;5056533;28;20185;-78
2023/11/19 05:14:09;;;;;;;0.10;0.10;;;9.50;99.90;;;;;;5058504;28;20246;-79
2023/11/19 05:16:35;;;;;;;0.10;0.10;;;9.70;99.90;;;;;;5059596;28;20194;-79
2023/11/19 05:19:01;;;;;;;0.03;0.03;;;9.80;99.90;;;;;;5059891;28;20561;-77
2023/11/19 05:21:26;;;;;;;0.10;0.10;;;9.90;99.90;;;;;;5062351;28;20701;-79
2023/11/19 05:23:52;;;;;;;0.10;0.10;;;9.60;99.90;;;;;;5063797;28;20189;-79
2023/11/19 05:26:21;;;;;;;0.00;0.00;;;9.70;99.90;;;;;;5065757;28;20181;-78
2023/11/19 05:28:47;;;;;;;0.10;0.10;;;9.80;99.90;;;;;;5065436;28;20254;-78
2023/11/19 05:31:13;;;;;;;0.10;0.10;;;9.80;99.90;;;;;;5065033;28;20189;-78
2023/11/19 05:33:38;;;;;;;0.10;0.10;;;9.90;99.90;;;;;;5063199;28;20193;-78
2023/11/19 05:36:05;;;;;;;0.10;0.10;;;10.00;99.90;;;;;;5065099;28;20188;-78
2023/11/19 05:38:31;;;;;;;0.10;0.10;;;10.10;99.90;;;;;;5063515;28;20209;-79
2023/11/19 05:40:56;;;;;;;0.10;0.10;;;10.10;99.90;;;;;;5064653;28;20248;-77
2023/11/19 05:43:22;;;;;;;0.10;0.10;;;10.00;99.90;;;;;;5063406;28;20188;-77
2023/11/19 05:45:47;;;;;;;0.10;0.10;;;9.90;99.90;;;;;;5063051;28;20181;-77
2023/11/19 05:48:13;;;;;;;0.10;0.10;;;10.00;99.90;;;;;;5065361;28;20239;-79
2023/11/19 05:50:39;;;;;;;0.10;0.10;;;10.00;99.90;;;;;;5064035;28;20192;-79
2023/11/19 05:53:06;;;;;;;0.10;0.10;;;9.90;99.90;;;;;;5065279;28;20592;-79
2023/11/19 05:55:34;;;;;;;0.10;0.10;;;9.90;99.90;;;;;;5064313;28;20281;-79
2023/11/19 05:58:00;;;;;;;0.10;0.10;;;10.00;99.90;;;;;;5063230;28;20205;-79
2023/11/19 06:00:26;;;;;;;0.10;0.10;;;9.90;99.90;;;;;;5065448;28;20567;-79
2023/11/19 06:02:52;;;;;;;0.10;0.10;;;9.80;99.90;;;;;;5062819;28;20275;-79
2023/11/19 06:05:18;;;;;;;0.07;0.07;;;9.90;99.90;;;;;;5064547;28;20264;-79
2023/11/19 06:07:43;;;;;;;0.10;0.10;;;9.80;99.90;;;;;;5063999;28;20215;-78
2023/11/19 06:10:10;;;;;;;0.10;0.10;;;9.80;99.90;;;;;;5064460;28;20185;-79
2023/11/19 06:12:38;;;;;;;0.10;0.10;;;9.60;99.90;;;;;;5065473;28;20193;-80
2023/11/19 06:15:08;;;;;;;0.10;0.10;;;9.60;99.90;;;;;;5066272;28;20181;-79
2023/11/19 06:17:34;;;;;;;0.10;0.10;;;9.70;99.90;;;;;;5062733;28;20205;-79
2023/11/19 06:19:59;;;;;;;0.10;0.10;;;9.80;99.90;;;;;;5063442;28;20751;-79
2023/11/19 06:22:25;;;;;;;0.10;0.10;;;9.70;99.90;;;;;;5064698;28;20185;-79
2023/11/19 06:24:50;;;;;;;0.10;0.10;;;9.60;99.90;;;;;;5066283;28;20181;-79
2023/11/19 06:27:16;;;;;;;0.07;0.07;;;9.60;99.90;;;;;;5061812;28;20215;-78
2023/11/19 06:29:42;;;;;;;0.10;0.10;;;9.70;99.90;;;;;;5064643;28;20236;-79
2023/11/19 06:32:08;;;;;;;0.10;0.10;;;9.60;99.90;;;;;;5059997;28;20181;-78
2023/11/19 06:34:34;;;;;;;0.10;0.10;;;9.80;99.90;;;;;;5060621;28;20193;-78
2023/11/19 06:36:59;;;;;;;0.10;0.10;;;9.70;99.90;;;;;;5058688;28;20793;-78
2023/11/19 06:39:25;;;;;;;0.10;0.10;;;9.80;99.90;;;;;;5059812;28;20231;-78
2023/11/19 06:41:51;;;;;;;0.10;0.10;;;9.90;99.90;;;;;;5060530;28;20185;-79
2023/11/19 06:44:17;;;;;;;0.10;0.10;;;10.10;99.90;;;;;;5057473;28;20189;-79
2023/11/19 06:46:43;;;;;;;0.10;0.10;;;10.10;99.90;;;;;;5060644;28;20259;-79
2023/11/19 06:49:09;;;;;;;0.10;0.10;;;10.00;99.90;;;;;;5059991;28;20216;-79
2023/11/19 06:51:34;;;;;;;0.10;0.10;;;9.90;99.90;;;;;;5059982;28;20275;-78
2023/11/19 06:54:00;;;;;;;0.10;0.10;;;10.00;99.90;;;;;;5061035;28;20205;-78
2023/11/19 06:56:26;;;;;;;0.10;0.10;;;9.90;99.90;;;;;;5061334;28;20184;-78
2023/11/19 06:58:53;;;;;;;0.10;0.10;;;9.90;99.90;;;;;;5059232;28;20326;-78
2023/11/19 07:01:19;;;;;;;0.10;0.10;;;10.00;99.90;;;;;;5058603;28;20232;-79
2023/11/19 07:03:48;;;;;;;0.10;0.10;;;10.20;99.90;;;;;;5059851;28;20561;-79
2023/11/19 07:06:14;;;;;;;0.10;0.10;;;10.30;99.90;;;;;;5059761;28;20219;-79
2023/11/19 07:08:44;;;;;;;0.03;0.03;;;10.20;99.90;;;;;;5059732;28;20213;-79
2023/11/19 07:11:11;;;;;;;0.10;0.10;;;10.00;99.90;;;;;;5059844;28;20207;-79
2023/11/19 07:13:37;;;;;;;0.10;0.10;;;10.10;99.90;;;;;;5060879;28;20656;-78
2023/11/19 07:16:03;;;;;;;0.10;0.10;;;10.10;99.90;;;;;;5059293;28;20189;-79
2023/11/19 07:18:29;;;;;;;0.10;0.10;;;10.20;99.90;;;;;;5057108;28;20206;-79
2023/11/19 07:20:55;;;;;;;0.10;0.10;;;10.10;99.90;;;;;;5057695;28;20177;-78
2023/11/19 07:23:21;;;;;;;0.10;0.10;;;10.30;99.90;;;;;;5056235;28;20315;-78
2023/11/19 07:25:47;;;;;;;0.10;0.10;;;10.30;99.90;;;;;;5055091;28;20181;-79
2023/11/19 07:28:14;;;;;;;0.10;0.10;;;10.30;99.90;;;;;;5056927;28;20202;-79
2023/11/19 07:30:39;;;;;;;0.10;0.10;;;10.30;99.90;;;;;;5058954;28;20301;-79
2023/11/19 07:33:05;;;;;;;0.10;0.10;;;10.40;99.90;;;;;;5061075;28;20774;-79
2023/11/19 07:35:31;;;;;;;0.10;0.10;;;10.50;99.90;;;;;;5060109;28;20184;-79
2023/11/19 07:37:57;;;;;;;0.00;0.00;;;10.30;99.90;;;;;;5058827;28;20209;-79
2023/11/19 07:40:23;;;;;;;0.10;0.10;;;10.30;99.90;;;;;;5061988;28;20211;-79
2023/11/19 07:42:49;;;;;;;0.10;0.10;;;10.30;99.90;;;;;;5060559;28;20178;-79
2023/11/19 07:45:15;;;;;;;0.00;0.00;;;10.50;99.90;;;;;;5058549;28;20227;-79
2023/11/19 07:47:40;;;;;;;0.10;0.10;;;10.60;99.90;;;;;;5059432;28;20694;-79
2023/11/19 07:50:06;;;;;;;0.00;0.00;;;10.80;99.90;;;;;;5060317;28;20610;-79
2023/11/19 07:52:32;;;;;;;0.10;0.10;;;10.80;99.90;;;;;;5059028;28;20221;-78
2023/11/19 07:54:57;;;;;;;0.10;0.10;;;10.80;99.90;;;;;;5057590;28;20188;-79
2023/11/19 07:57:24;;;;;;;0.10;0.10;;;10.90;99.90;;;;;;5059041;28;20790;-79
2023/11/19 07:59:49;;;;;;;0.10;0.10;;;11.10;99.90;;;;;;5057076;28;20228;-79
2023/11/19 08:02:15;;;;;;;0.10;0.10;;;11.20;99.90;;;;;;5058215;28;20647;-79
2023/11/19 08:04:44;;;;;;;0.00;0.00;;;11.20;99.90;;;;;;5058668;28;20507;-79
2023/11/19 08:07:10;;;;;;;0.00;0.00;;;11.40;99.90;;;;;;5061235;28;20181;-79
2023/11/19 08:09:37;;;;;;;0.07;0.07;;;11.40;99.90;;;;;;5057761;28;20729;-79
2023/11/19 08:12:03;;;;;;;0.10;0.10;;;11.60;99.90;;;;;;5057500;28;21134;-80
2023/11/19 08:14:29;;;;;;;0.10;0.10;;;11.60;99.90;;;;;;5059285;28;20568;-80
2023/11/19 08:16:54;;;;;;;0.10;0.10;;;11.70;99.90;;;;;;5058892;28;20183;-80
2023/11/19 08:19:20;;;;;;;0.07;0.07;;;11.70;99.90;;;;;;5058113;28;20215;-79
2023/11/19 08:21:45;;;;;;;0.10;0.10;;;11.70;99.90;;;;;;5058806;28;20177;-79
2023/11/19 08:24:11;;;;;;;0.03;0.03;;;11.80;99.90;;;;;;5060887;28;20177;-79
2023/11/19 08:26:36;;;;;;;0.00;0.00;;;11.90;99.90;;;;;;5058599;28;20177;-79
2023/11/19 08:29:02;;;;;;;0.10;0.10;;;12.10;99.90;;;;;;5060461;28;20645;-80
2023/11/19 08:31:27;;;;;;;0.10;0.10;;;12.30;99.90;;;;;;5059128;28;20191;-79
2023/11/19 08:33:53;;;;;;;0.10;0.10;;;12.40;99.90;;;;;;5061432;28;20177;-79
2023/11/19 08:36:19;;;;;;;0.10;0.10;;;12.50;99.90;;;;;;5059447;28;20185;-79
2023/11/19 08:38:45;;;;;;;0.10;0.10;;;12.60;99.90;;;;;;5059234;28;20205;-80
2023/11/19 08:41:10;;;;;;;0.10;0.10;;;12.80;99.90;;;;;;5060360;28;20186;-80
2023/11/19 08:43:36;;;;;;;0.10;0.10;;;12.80;99.90;;;;;;5058476;28;20197;-79
2023/11/19 08:46:01;;;;;;;0.10;0.10;;;12.80;99.90;;;;;;5060546;28;20197;-80
2023/11/19 08:48:27;;;;;;;0.10;0.10;;;12.90;99.90;;;;;;5059261;28;20292;-79
2023/11/19 08:50:52;;;;;;;0.10;0.10;;;12.90;99.90;;;;;;5058254;28;20264;-80
2023/11/19 08:53:17;;;;;;;0.03;0.03;;;13.20;99.90;;;;;;5060157;28;20175;-79
2023/11/19 08:55:43;;;;;;;0.10;0.10;;;13.20;99.90;;;;;;5058096;28;20183;-79
2023/11/19 08:58:09;;;;;;;0.10;0.10;;;13.20;99.90;;;;;;5056882;28;20213;-80
2023/11/19 09:00:34;;;;;;;0.10;0.10;;;12.90;99.90;;;;;;5056404;28;20236;-79
2023/11/19 09:03:00;;;;;;;0.10;0.10;;;12.80;99.90;;;;;;5059145;28;20671;-79
2023/11/19 09:05:25;;;;;;;0.10;0.10;;;12.80;99.90;;;;;;5056883;28;20307;-79
2023/11/19 09:07:51;;;;;;;0.10;0.10;;;13.20;99.90;;;;;;5060501;28;20205;-79
2023/11/19 09:10:16;;;;;;;0.00;0.00;;;13.50;99.90;;;;;;5061442;28;20214;-79
2023/11/19 09:12:42;;;;;;;0.10;0.10;;;13.50;99.90;;;;;;5060689;28;20192;-79
2023/11/19 09:15:10;;;;;;;0.10;0.10;;;13.60;99.90;;;;;;5059046;28;20179;-79
2023/11/19 09:17:36;;;;;;;0.10;0.10;;;13.80;99.90;;;;;;5060387;28;20334;-79
2023/11/19 09:20:01;;;;;;;0.10;0.10;;;14.00;99.90;;;;;;5059480;28;20758;-79
2023/11/19 09:22:27;;;;;;;0.10;0.10;;;14.00;99.90;;;;;;5062568;28;20245;-79
2023/11/19 09:24:52;;;;;;;0.10;0.10;;;14.00;99.90;;;;;;5057879;28;20270;-78
2023/11/19 09:27:18;;;;;;;0.10;0.10;;;14.10;99.90;;;;;;5056679;28;20186;-78
2023/11/19 09:29:45;;;;;;;0.10;0.10;;;14.20;99.90;;;;;;5059889;28;20195;-78
2023/11/19 09:32:11;;;;;;;0.10;0.10;;;14.20;99.90;;;;;;5058909;28;20544;-79
2023/11/19 09:34:36;;;;;;;0.10;0.10;;;14.20;99.90;;;;;;5060312;28;20192;-79
2023/11/19 09:37:02;;;;;;;0.10;0.10;;;14.20;99.90;;;;;;5058890;28;20274;-79
2023/11/19 09:39:28;;;;;;;0.00;0.00;;;14.30;99.90;;;;;;5050831;28;20358;-79
2023/11/19 09:41:53;;;;;;;0.10;0.10;;;14.30;99.90;;;;;;5051918;28;20656;-79
2023/11/19 09:44:19;;;;;;;0.10;0.10;;;14.40;99.90;;;;;;5056325;28;20655;-79
2023/11/19 09:46:46;;;;;;;0.10;0.10;;;14.40;99.90;;;;;;5058301;28;20185;-78
2023/11/19 09:49:13;;;;;;;0.10;0.10;;;14.50;99.90;;;;;;5057206;28;20204;-78
2023/11/19 09:51:38;;;;;;;0.10;0.10;;;14.70;99.90;;;;;;5054513;28;20196;-79
2023/11/19 09:54:04;;;;;;;0.10;0.10;;;14.80;99.90;;;;;;5057689;28;20607;-79
2023/11/19 09:56:30;;;;;;;0.00;0.00;;;14.80;99.90;;;;;;5056453;28;20711;-79
2023/11/19 09:58:56;;;;;;;0.10;0.10;;;14.80;99.90;;;;;;5057158;28;20248;-79
2023/11/19 10:01:21;;;;;;;0.10;0.10;;;14.90;99.90;;;;;;5056004;28;20281;-79
2023/11/19 10:03:49;;;;;;;0.10;0.10;;;15.00;99.90;;;;;;5058289;28;20186;-79
2023/11/19 10:06:15;;;;;;;0.10;0.10;;;15.00;99.90;;;;;;5057842;28;20530;-79
2023/11/19 10:08:43;;;;;;;0.10;0.10;;;15.10;99.90;;;;;;5057634;28;20218;-79
2023/11/19 10:11:10;;;;;;;0.10;0.10;;;15.10;99.90;;;;;;5058660;28;20193;-79
2023/11/19 10:13:38;;;;;;;0.10;0.10;;;15.20;99.90;;;;;;5060420;28;20271;-79
2023/11/19 10:16:14;;;;;;;0.10;0.10;;;15.30;99.90;;;;;;5059359;28;20182;-79
2023/11/19 10:18:47;;;;;;;0.10;0.10;;;15.30;99.90;;;;;;5061930;28;20205;-79
2023/11/19 10:21:16;;;;;;;0.10;0.10;;;15.20;99.90;;;;;;5058450;28;20542;-79
2023/11/19 10:23:49;;;;;;;0.10;0.10;;;15.30;99.90;;;;;;5060400;28;20582;-78
2023/11/19 10:26:14;;;;;;;0.10;0.10;;;15.30;99.90;;;;;;5058813;28;20226;-79
2023/11/19 10:28:45;;;;;;;0.10;0.10;;;15.20;99.90;;;;;;5057848;28;21042;-80
2023/11/19 10:31:15;;;;;;;0.10;0.10;;;14.90;99.90;;;;;;5058557;28;20652;-78
2023/11/19 10:33:40;;;;;;;0.10;0.10;;;15.20;99.90;;;;;;5060231;28;20574;-78
2023/11/19 10:36:06;;;;;;;0.10;0.10;;;15.30;99.90;;;;;;5056997;28;20189;-78
2023/11/19 10:38:33;;;;;;;0.10;0.10;;;15.40;99.90;;;;;;5059537;28;20727;-78
2023/11/19 10:40:59;;;;;;;0.10;0.10;;;15.50;99.90;;;;;;5061199;28;20656;-79
2023/11/19 10:43:25;;;;;;;0.10;0.10;;;15.60;99.90;;;;;;5061279;28;20235;-79
2023/11/19 10:45:52;;;;;;;0.10;0.10;;;15.60;99.90;;;;;;5060906;28;20231;-79
2023/11/19 10:48:17;;;;;;;0.10;0.10;;;15.30;99.90;;;;;;5060150;28;20208;-79
2023/11/19 10:50:46;;;;;;;0.10;0.10;;;15.30;99.90;;;;;;5057961;28;21051;-79
2023/11/19 10:53:18;;;;;;;0.10;0.10;;;15.30;99.90;;;;;;5061601;28;20241;-80
2023/11/19 10:55:47;;;;;;;0.10;0.10;;;15.30;99.90;;;;;;5056082;28;20195;-80
2023/11/19 10:58:18;;;;;;;0.10;0.10;;;15.30;99.90;;;;;;5058160;28;20688;-79
2023/11/19 11:00:47;;;;;;;0.10;0.10;;;15.30;99.90;;;;;;5056850;28;20251;-79
2023/11/19 11:03:19;;;;;;;0.10;0.10;;;15.00;99.90;;;;;;5060729;28;20268;-80
2023/11/19 11:05:50;;;;;;;0.10;0.10;;;15.00;99.90;;;;;;5057407;28;20221;-79
2023/11/19 11:08:16;;;;;;;0.10;0.10;;;14.90;99.90;;;;;;5059456;28;21162;-79
2023/11/19 11:10:55;;;;;;;2.03;1.90;;;14.90;99.90;;;;;;5058780;28;20212;-79
2023/11/19 11:13:29;;;;;;;16.83;12.40;;;14.90;99.90;;;;;;5058244;28;20203;-79
2023/11/19 11:15:57;;;;;;;0.10;0.10;;;15.30;99.90;;;;;;5059528;28;20242;-80
2023/11/19 11:18:25;;;;;;;0.10;0.10;;;15.30;99.90;;;;;;5059543;28;20255;-79
2023/11/19 11:20:54;;;;;;;0.10;0.10;;;15.20;99.90;;;;;;5056138;28;20192;-80
2023/11/19 11:23:35;;;;;;;0.10;0.10;;;15.10;99.90;;;;;;5057212;28;20176;-79
2023/11/19 11:26:26;;;;;;;0.10;0.10;;;15.10;99.90;;;;;;5057533;28;20185;-79
2023/11/19 11:29:26;;;;;;;0.10;0.10;;;15.20;99.90;;;;;;5058671;28;20365;-79
2023/11/19 11:32:07;;;;;;;0.10;0.10;;;15.50;99.90;;;;;;5059172;28;20192;-79
2023/11/19 11:34:41;;;;;;;0.10;0.10;;;15.60;99.90;;;;;;5060359;28;20188;-80
2023/11/19 11:37:25;;;;;;;0.10;0.10;;;15.40;99.90;;;;;;5057550;28;20177;-80
2023/11/19 11:39:51;;;;;;;0.00;0.00;;;15.40;99.90;;;;;;5059174;28;20201;-79
2023/11/19 11:42:17;;;;;;;0.10;0.10;;;15.40;99.90;;;;;;5058326;28;20182;-79
2023/11/19 11:44:59;;;;;;;0.10;0.10;;;15.60;99.90;;;;;;5056817;28;20185;-80
2023/11/19 11:47:25;;;;;;;0.10;0.10;;;15.80;99.90;;;;;;5060394;28;20197;-79
2023/11/19 11:49:52;;;;;;;0.10;0.10;;;15.80;99.90;;;;;;5058734;28;20193;-79
2023/11/19 11:52:17;;;;;;;0.10;0.10;;;15.60;99.90;;;;;;5058474;28;20189;-80
2023/11/19 11:54:44;;;;;;;0.10;0.10;;;15.70;99.90;;;;;;5058815;28;20569;-80
2023/11/19 11:57:12;;;;;;;0.10;0.10;;;15.60;99.90;;;;;;5057123;28;20273;-79
2023/11/19 11:59:46;;;;;;;0.10;0.10;;;15.50;99.90;;;;;;5054669;28;20232;-80
2023/11/19 12:02:17;;;;;;;0.10;0.10;;;15.40;99.90;;;;;;5056935;28;20172;-80
2023/11/19 12:04:47;;;;;;;0.10;0.10;;;15.50;99.90;;;;;;5056434;28;20264;-79
2023/11/19 12:07:16;;;;;;;0.10;0.10;;;15.40;99.90;;;;;;5057800;28;20166;-79
2023/11/19 12:09:47;;;;;;;0.10;0.10;;;15.40;99.90;;;;;;5059587;28;20189;-79
2023/11/19 12:12:23;;;;;;;0.10;0.10;;;15.10;99.90;;;;;;5057898;28;20650;-79
2023/11/19 12:14:58;;;;;;;0.10;0.10;;;15.20;99.90;;;;;;5057958;28;20184;-79
2023/11/19 12:17:32;;;;;;;0.10;0.10;;;14.90;99.90;;;;;;5055693;28;20208;-79
2023/11/19 12:20:05;;;;;;;0.10;0.10;;;15.00;99.90;;;;;;5059244;28;20236;-79
2023/11/19 12:22:31;;;;;;;0.10;0.10;;;14.80;99.90;;;;;;5074461;28;20265;-79
2023/11/19 12:24:56;;;;;;;0.10;0.10;;;15.00;99.90;;;;;;5058735;28;20650;-79
2023/11/19 12:27:22;;;;;;;0.10;0.10;;;15.10;99.90;;;;;;5058563;28;20311;-78
2023/11/19 12:29:51;;;;;;;0.10;0.10;;;15.20;99.90;;;;;;5057378;28;20232;-79
2023/11/19 12:32:16;;;;;;;0.10;0.10;;;15.10;99.90;;;;;;5059537;28;20273;-78
2023/11/19 12:34:42;;;;;;;0.10;0.10;;;15.00;99.90;;;;;;5057412;28;20297;-79
2023/11/19 12:37:10;;;;;;;0.10;0.10;;;14.80;99.90;;;;;;5057635;28;20594;-79
2023/11/19 12:39:36;;;;;;;0.10;0.10;;;14.70;99.90;;;;;;5057828;28;20660;-78
2023/11/19 12:42:02;;;;;;;0.10;0.10;;;14.70;99.90;;;;;;5057167;28;20191;-78
2023/11/19 12:44:27;;;;;;;0.10;0.10;;;14.80;99.90;;;;;;5057153;28;20197;-78
2023/11/19 12:47:06;;;;;;;0.10;0.10;;;14.90;99.90;;;;;;5056452;28;20177;-79
2023/11/19 12:49:35;;;;;;;0.10;0.10;;;14.90;99.90;;;;;;5058082;28;20575;-78
2023/11/19 12:52:02;;;;;;;0.10;0.10;;;14.70;99.90;;;;;;5058591;28;20655;-79